createdAt,value
2023-02-19T00:01:45.664Z,63.13
2023-02-19T00:04:18.905Z,62.97
2023-02-19T00:06:47.278Z,60.78
2023-02-19T00:09:15.624Z,60.42
2023-02-19T00:11:43.057Z,61.54
2023-02-19T00:14:14.757Z,61.53
2023-02-19T00:16:41.699Z,60.07
2023-02-19T00:19:13.391Z,59.57
2023-02-19T00:21:40.401Z,58.87
2023-02-19T00:24:08.487Z,58.85
2023-02-19T00:26:35.616Z,59.43
2023-02-19T00:29:03.036Z,58.61
2023-02-19T00:31:33.338Z,59.10
2023-02-19T00:34:04.132Z,59.89
2023-02-19T00:36:32.055Z,61.41
2023-02-19T00:38:59.224Z,62.19
2023-02-19T00:41:26.254Z,61.99
2023-02-19T00:43:54.438Z,61.53
2023-02-19T00:46:22.903Z,61.51
2023-02-19T00:48:50.021Z,62.00
2023-02-19T00:51:16.932Z,61.43
2023-02-19T00:53:44.091Z,61.46
2023-02-19T00:56:12.160Z,61.97
2023-02-19T00:58:39.277Z,60.58
2023-02-19T01:01:06.937Z,59.42
2023-02-19T01:03:35.257Z,59.70
2023-02-19T01:06:04.478Z,59.43
2023-02-19T01:08:32.195Z,59.68
2023-02-19T01:11:01.765Z,59.54
2023-02-19T01:13:29.667Z,58.85
2023-02-19T01:16:24.917Z,58.72
2023-02-19T01:18:51.992Z,58.39
2023-02-19T01:21:22.309Z,58.12
2023-02-19T01:23:51.035Z,56.25
2023-02-19T01:26:25.151Z,55.41
2023-02-19T01:28:52.556Z,55.40
2023-02-19T01:31:22.359Z,55.11
2023-02-19T01:33:55.579Z,55.16
2023-02-19T01:36:23.578Z,55.41
2023-02-19T01:38:50.709Z,55.11
2023-02-19T01:41:21.310Z,55.93
2023-02-19T01:44:27.883Z,55.66
2023-02-19T01:46:57.642Z,54.42
2023-02-19T01:49:38.619Z,53.79
2023-02-19T01:52:15.264Z,53.99
2023-02-19T01:54:44.285Z,54.47
2023-02-19T01:57:22.483Z,54.18
2023-02-19T01:59:55.237Z,54.35
2023-02-19T02:02:25.149Z,53.75
2023-02-19T02:04:52.408Z,53.06
2023-02-19T02:07:37.747Z,52.56
2023-02-19T02:10:20.211Z,54.29
2023-02-19T02:12:51.246Z,53.43
2023-02-19T02:15:18.942Z,54.09
2023-02-19T02:17:54.773Z,55.61
2023-02-19T02:20:27.592Z,53.95
2023-02-19T02:22:56.317Z,54.11
2023-02-19T02:25:54.803Z,52.35
2023-02-19T02:28:53.464Z,52.87
2023-02-19T02:31:26.133Z,52.65
2023-02-19T02:34:15.287Z,52.17
2023-02-19T02:36:46.609Z,52.19
2023-02-19T02:39:19.013Z,51.36
2023-02-19T02:42:14.747Z,52.96
2023-02-19T02:45:05.837Z,52.04
2023-02-19T02:47:45.155Z,51.19
2023-02-19T02:50:35.944Z,51.21
2023-02-19T02:53:29.364Z,50.65
2023-02-19T02:55:57.082Z,51.18
2023-02-19T02:58:25.706Z,53.13
2023-02-19T03:01:20.205Z,53.11
2023-02-19T03:03:51.616Z,51.70
2023-02-19T03:06:22.562Z,51.60
2023-02-19T03:08:56.307Z,51.41
2023-02-19T03:11:41.891Z,50.55
2023-02-19T03:14:44.302Z,50.73
2023-02-19T03:17:43.057Z,50.46
2023-02-19T03:20:14.722Z,50.34
2023-02-19T03:22:46.805Z,50.28
2023-02-19T03:25:38.804Z,50.15
2023-02-19T03:28:09.220Z,50.34
2023-02-19T03:30:41.905Z,50.96
2023-02-19T03:33:17.358Z,50.54
2023-02-19T03:35:51.447Z,51.50
2023-02-19T03:38:34.147Z,50.88
2023-02-19T03:41:43.759Z,51.46
2023-02-19T03:44:36.614Z,51.43
2023-02-19T03:47:22.856Z,51.64
2023-02-19T03:49:54.010Z,51.77
2023-02-19T03:52:37.078Z,51.88
2023-02-19T03:55:31.973Z,52.88
2023-02-19T03:58:07.905Z,52.69
2023-02-19T04:00:51.308Z,52.80
2023-02-19T04:03:36.683Z,52.55
2023-02-19T04:06:09.804Z,52.74
2023-02-19T04:08:38.970Z,53.02
2023-02-19T04:11:07.853Z,52.88
2023-02-19T04:13:46.052Z,52.54
2023-02-19T04:16:21.827Z,53.02
2023-02-19T04:18:53.513Z,54.36
2023-02-19T04:21:21.460Z,55.77
2023-02-19T04:23:49.213Z,55.57
2023-02-19T04:26:18.659Z,56.54
2023-02-19T04:28:46.715Z,56.72
2023-02-19T04:31:14.030Z,55.63
2023-02-19T04:33:41.446Z,54.67
2023-02-19T04:36:11.870Z,54.30
2023-02-19T04:38:38.735Z,54.06
2023-02-19T04:41:05.752Z,54.13
2023-02-19T04:43:32.623Z,52.65
2023-02-19T04:46:01.931Z,52.24
2023-02-19T04:48:29.663Z,52.16
2023-02-19T04:50:56.719Z,52.29
2023-02-19T04:53:23.625Z,52.18
2023-02-19T04:55:53.383Z,52.10
2023-02-19T04:58:20.994Z,52.32
2023-02-19T05:00:52.220Z,51.41
2023-02-19T05:03:19.160Z,50.61
2023-02-19T05:05:46.134Z,50.15
2023-02-19T05:08:13.213Z,50.52
2023-02-19T05:10:41.431Z,51.08
2023-02-19T05:13:08.325Z,50.50
2023-02-19T05:15:35.607Z,50.04
2023-02-19T05:18:02.910Z,48.18
2023-02-19T05:20:29.824Z,47.00
2023-02-19T05:22:57.122Z,45.28
2023-02-19T05:25:24.106Z,45.90
2023-02-19T05:28:10.924Z,46.59
2023-02-19T05:30:37.878Z,46.54
2023-02-19T05:33:04.734Z,44.12
2023-02-19T05:35:31.646Z,42.35
2023-02-19T05:37:58.578Z,41.53
2023-02-19T05:40:25.505Z,43.82
2023-02-19T05:42:52.410Z,41.30
2023-02-19T05:45:19.299Z,38.81
2023-02-19T05:47:46.165Z,36.78
2023-02-19T05:50:13.047Z,34.36
2023-02-19T05:52:39.898Z,32.65
2023-02-19T05:55:06.974Z,30.81
2023-02-19T05:57:33.850Z,32.51
2023-02-19T06:00:00.706Z,32.87
2023-02-19T06:02:27.711Z,31.86
2023-02-19T06:04:54.828Z,30.50
2023-02-19T06:07:21.667Z,29.40
2023-02-19T06:09:51.476Z,27.93
2023-02-19T06:12:18.513Z,27.92
2023-02-19T06:14:45.451Z,26.91
2023-02-19T06:17:12.324Z,26.72
2023-02-19T06:19:39.365Z,26.24
2023-02-19T06:22:06.413Z,26.50
2023-02-19T06:24:33.893Z,26.63
2023-02-19T06:27:00.769Z,26.31
2023-02-19T06:29:27.673Z,27.72
2023-02-19T06:31:54.666Z,28.69
2023-02-19T06:34:21.638Z,29.11
2023-02-19T06:36:49.636Z,30.49
2023-02-19T06:39:16.639Z,32.28
2023-02-19T06:41:43.868Z,32.25
2023-02-19T06:44:10.798Z,32.79
2023-02-19T06:46:37.683Z,33.55
2023-02-19T06:49:05.868Z,34.79
2023-02-19T06:51:33.678Z,36.01
2023-02-19T06:54:02.375Z,38.04
2023-02-19T06:56:32.601Z,38.75
2023-02-19T06:59:02.355Z,38.36
2023-02-19T07:01:30.848Z,38.30
2023-02-19T07:03:58.305Z,38.60
2023-02-19T07:06:26.551Z,36.87
2023-02-19T07:08:55.557Z,37.70
2023-02-19T07:11:23.007Z,37.61
2023-02-19T07:13:55.757Z,37.98
2023-02-19T07:16:23.381Z,37.53
2023-02-19T07:18:50.587Z,35.91
2023-02-19T07:21:19.220Z,37.21
2023-02-19T07:23:46.206Z,38.93
2023-02-19T07:26:15.745Z,38.41
2023-02-19T07:28:47.211Z,38.70
2023-02-19T07:31:16.537Z,39.13
2023-02-19T07:33:44.694Z,38.85
2023-02-19T07:36:12.761Z,38.11
2023-02-19T07:38:40.096Z,36.93
2023-02-19T07:41:07.352Z,36.52
2023-02-19T07:43:36.398Z,36.75
2023-02-19T07:46:05.069Z,37.13
2023-02-19T07:48:32.240Z,38.41
2023-02-19T07:51:00.639Z,37.53
2023-02-19T07:53:28.273Z,38.13
2023-02-19T07:56:00.720Z,38.60
2023-02-19T07:58:28.136Z,38.57
2023-02-19T08:00:55.169Z,37.88
2023-02-19T08:03:22.567Z,37.48
2023-02-19T08:05:53.932Z,36.13
2023-02-19T08:08:20.977Z,37.62
2023-02-19T08:11:06.641Z,37.46
2023-02-19T08:13:34.346Z,36.46
2023-02-19T08:16:16.916Z,36.09
2023-02-19T08:18:46.974Z,36.76
2023-02-19T08:21:14.194Z,37.66
2023-02-19T08:23:41.102Z,36.73
2023-02-19T08:26:08.750Z,36.27
2023-02-19T08:28:35.922Z,36.24
2023-02-19T08:31:05.805Z,36.48
2023-02-19T08:33:33.026Z,37.23
2023-02-19T08:36:08.029Z,36.61
2023-02-19T08:38:36.049Z,34.97
2023-02-19T08:41:08.385Z,34.95
2023-02-19T08:43:35.983Z,36.19
2023-02-19T08:46:03.797Z,35.53
2023-02-19T08:48:30.756Z,35.42
2023-02-19T08:51:04.085Z,35.95
2023-02-19T08:53:32.979Z,37.21
2023-02-19T08:56:04.224Z,38.31
2023-02-19T08:58:32.919Z,35.90
2023-02-19T09:01:00.100Z,34.02
2023-02-19T09:03:27.323Z,34.16
2023-02-19T09:05:54.193Z,33.01
2023-02-19T09:08:21.184Z,33.94
2023-02-19T09:11:01.282Z,34.37
2023-02-19T09:13:28.605Z,34.32
2023-02-19T09:15:57.201Z,35.50
2023-02-19T09:18:25.636Z,33.83
2023-02-19T09:20:52.629Z,33.28
2023-02-19T09:23:19.632Z,31.60
2023-02-19T09:25:46.685Z,30.73
2023-02-19T09:28:13.616Z,31.03
2023-02-19T09:30:40.566Z,32.79
2023-02-19T09:33:08.250Z,31.97
2023-02-19T09:35:39.326Z,32.84
2023-02-19T09:38:06.303Z,34.59
2023-02-19T09:40:36.467Z,34.12
2023-02-19T09:43:08.156Z,34.56
2023-02-19T09:45:38.148Z,35.43
2023-02-19T09:48:06.383Z,36.51
2023-02-19T09:50:39.250Z,34.44
2023-02-19T09:53:21.282Z,34.86
2023-02-19T09:55:48.805Z,33.70
2023-02-19T09:58:49.987Z,31.90
2023-02-19T10:01:17.853Z,30.15
2023-02-19T10:03:48.170Z,30.60
2023-02-19T10:06:27.088Z,30.78
2023-02-19T10:09:13.916Z,29.93
2023-02-19T10:11:41.961Z,32.31
2023-02-19T10:14:22.242Z,33.62
2023-02-19T10:16:50.269Z,34.70
2023-02-19T10:19:17.431Z,34.73
2023-02-19T10:21:44.751Z,34.22
2023-02-19T10:24:26.551Z,33.41
2023-02-19T10:26:53.492Z,33.23
2023-02-19T10:29:22.145Z,33.83
2023-02-19T10:31:49.130Z,34.57
2023-02-19T10:34:22.374Z,32.31
2023-02-19T10:36:51.772Z,32.99
2023-02-19T10:39:30.798Z,33.40
2023-02-19T10:41:58.914Z,34.29
2023-02-19T10:44:29.019Z,34.33
2023-02-19T10:46:59.361Z,35.00
2023-02-19T10:49:30.551Z,33.63
2023-02-19T10:52:05.571Z,34.08
2023-02-19T10:54:33.049Z,32.29
2023-02-19T10:57:15.164Z,33.39
2023-02-19T10:59:59.267Z,31.09
2023-02-19T11:02:26.955Z,29.76
2023-02-19T11:05:06.678Z,28.41
2023-02-19T11:07:34.005Z,29.90
2023-02-19T11:10:01.539Z,27.38
2023-02-19T11:12:34.434Z,27.65
2023-02-19T11:15:41.822Z,28.36
2023-02-19T11:18:14.375Z,28.43
2023-02-19T11:21:07.792Z,29.92
2023-02-19T11:23:38.606Z,29.91
2023-02-19T11:26:16.096Z,30.38
2023-02-19T11:28:44.334Z,30.79
2023-02-19T11:31:20.532Z,30.94
2023-02-19T11:34:02.116Z,32.29
2023-02-19T11:36:36.501Z,34.20
2023-02-19T11:39:27.971Z,35.02
2023-02-19T11:42:11.043Z,32.05
2023-02-19T11:44:56.732Z,30.59
2023-02-19T11:47:32.801Z,31.85
2023-02-19T11:50:30.588Z,31.61
2023-02-19T11:53:22.127Z,29.58
2023-02-19T11:56:12.310Z,29.72
2023-02-19T11:59:05.351Z,30.27
2023-02-19T12:01:38.247Z,32.20
2023-02-19T12:04:23.666Z,31.32
2023-02-19T12:07:24.788Z,30.98
2023-02-19T12:10:43.252Z,32.05
2023-02-19T12:13:40.586Z,32.39
2023-02-19T12:16:31.266Z,32.03
2023-02-19T12:19:19.820Z,32.71
2023-02-19T12:21:55.676Z,33.10
2023-02-19T12:24:30.264Z,33.10
2023-02-19T12:27:42.082Z,33.22
2023-02-19T12:30:31.957Z,34.02
2023-02-19T12:33:30.483Z,34.94
2023-02-19T12:36:09.600Z,35.82
2023-02-19T12:38:44.548Z,34.63
2023-02-19T12:41:32.183Z,34.34
2023-02-19T12:44:21.158Z,35.22
2023-02-19T12:46:52.572Z,35.85
2023-02-19T12:49:30.794Z,36.36
2023-02-19T12:52:15.052Z,36.40
2023-02-19T12:54:45.209Z,36.66
2023-02-19T12:57:18.556Z,35.88
2023-02-19T13:00:03.669Z,36.04
2023-02-19T13:02:45.009Z,36.47
2023-02-19T13:05:43.466Z,35.88
2023-02-19T13:08:25.150Z,35.33
2023-02-19T13:10:59.731Z,35.01
2023-02-19T13:13:31.994Z,35.19
2023-02-19T13:16:18.421Z,35.04
2023-02-19T13:18:49.793Z,35.22
2023-02-19T13:21:38.469Z,34.10
2023-02-19T13:24:23.194Z,34.30
2023-02-19T13:27:14.685Z,34.01
2023-02-19T13:30:13.898Z,33.60
2023-02-19T13:33:00.917Z,33.82
2023-02-19T13:35:46.547Z,33.29
2023-02-19T13:38:14.154Z,32.75
2023-02-19T13:40:43.095Z,32.41
2023-02-19T13:43:29.563Z,32.17
2023-02-19T13:46:02.460Z,31.86
2023-02-19T13:48:34.015Z,32.80
2023-02-19T13:51:13.528Z,34.19
2023-02-19T13:53:44.889Z,34.38
2023-02-19T13:56:30.325Z,34.59
2023-02-19T13:59:12.202Z,34.85
2023-02-19T14:01:54.263Z,34.28
2023-02-19T14:04:40.394Z,35.14
2023-02-19T14:07:07.349Z,34.09
2023-02-19T14:09:46.125Z,34.79
2023-02-19T14:12:15.461Z,36.12
2023-02-19T14:14:43.635Z,37.12
2023-02-19T14:17:10.577Z,37.77
2023-02-19T14:19:43.268Z,37.87
2023-02-19T14:22:47.593Z,37.76
2023-02-19T14:25:26.476Z,37.72
2023-02-19T14:28:35.645Z,37.58
2023-02-19T14:31:39.834Z,37.85
2023-02-19T14:34:19.662Z,36.68
2023-02-19T14:36:55.553Z,36.76
2023-02-19T14:39:28.344Z,37.09
2023-02-19T14:41:59.247Z,36.88
2023-02-19T14:44:35.329Z,36.13
2023-02-19T14:47:13.685Z,36.10
2023-02-19T14:49:55.341Z,35.63
2023-02-19T14:52:28.460Z,35.46
2023-02-19T14:55:08.410Z,35.64
2023-02-19T14:57:47.511Z,35.51
2023-02-19T15:00:23.497Z,35.81
2023-02-19T15:02:52.355Z,36.52
2023-02-19T15:05:24.689Z,37.07
2023-02-19T15:07:54.533Z,37.36
2023-02-19T15:10:22.030Z,37.43
2023-02-19T15:13:01.294Z,38.00
2023-02-19T15:15:30.512Z,37.84
2023-02-19T15:17:59.243Z,38.47
2023-02-19T15:20:37.934Z,38.70
2023-02-19T15:23:08.542Z,38.67
2023-02-19T15:25:38.666Z,38.57
2023-02-19T15:28:23.832Z,39.48
2023-02-19T15:31:15.384Z,39.21
2023-02-19T15:33:50.743Z,39.19
2023-02-19T15:36:25.891Z,39.17
2023-02-19T15:38:54.839Z,39.58
2023-02-19T15:41:23.721Z,39.61
2023-02-19T15:43:59.634Z,40.31
2023-02-19T15:46:26.855Z,40.28
2023-02-19T15:48:53.856Z,40.07
2023-02-19T15:51:29.691Z,40.26
2023-02-19T15:54:03.327Z,40.41
2023-02-19T15:56:34.326Z,40.08
2023-02-19T15:59:13.886Z,40.24
2023-02-19T16:01:41.231Z,39.91
2023-02-19T16:04:16.500Z,39.67
2023-02-19T16:07:03.770Z,39.48
2023-02-19T16:09:39.888Z,38.80
2023-02-19T16:12:24.768Z,38.55
2023-02-19T16:14:51.871Z,38.64
2023-02-19T16:17:23.239Z,38.91
2023-02-19T16:19:57.507Z,38.97
2023-02-19T16:22:27.866Z,39.61
2023-02-19T16:25:06.836Z,39.95
2023-02-19T16:27:37.129Z,39.89
2023-02-19T16:30:08.130Z,39.65
2023-02-19T16:32:35.130Z,39.80
2023-02-19T16:35:02.089Z,39.95
2023-02-19T16:37:56.215Z,39.69
2023-02-19T16:40:35.446Z,39.73
2023-02-19T16:43:05.211Z,39.47
2023-02-19T16:45:32.372Z,39.66
2023-02-19T16:47:59.502Z,39.61
2023-02-19T16:50:29.377Z,39.31
2023-02-19T16:53:01.897Z,39.32
2023-02-19T16:55:32.329Z,39.95
2023-02-19T16:57:59.305Z,40.53
2023-02-19T17:00:29.423Z,40.20
2023-02-19T17:02:59.617Z,39.61
2023-02-19T17:05:29.169Z,39.90
2023-02-19T17:07:56.190Z,39.89
2023-02-19T17:10:26.770Z,41.29
2023-02-19T17:12:55.229Z,42.79
2023-02-19T17:15:23.306Z,43.53
2023-02-19T17:17:50.252Z,44.02
2023-02-19T17:20:21.428Z,44.59
2023-02-19T17:22:48.402Z,44.11
2023-02-19T17:25:15.515Z,44.48
2023-02-19T17:27:42.561Z,44.15
2023-02-19T17:30:16.845Z,44.77
2023-02-19T17:32:43.726Z,45.19
2023-02-19T17:35:10.685Z,44.67
2023-02-19T17:37:37.689Z,44.70
2023-02-19T17:40:04.801Z,44.49
2023-02-19T17:42:31.694Z,44.39
2023-02-19T17:44:58.568Z,45.59
2023-02-19T17:47:25.692Z,45.73
2023-02-19T17:49:52.840Z,45.64
2023-02-19T17:52:19.778Z,44.88
2023-02-19T17:54:46.862Z,44.17
2023-02-19T17:57:13.733Z,44.76
2023-02-19T17:59:40.690Z,45.80
2023-02-19T18:02:07.815Z,45.88
2023-02-19T18:04:36.294Z,47.00
2023-02-19T18:07:03.901Z,47.20
2023-02-19T18:09:30.804Z,46.97
2023-02-19T18:11:57.812Z,47.72
2023-02-19T18:14:24.775Z,47.60
2023-02-19T18:16:51.960Z,47.21
2023-02-19T18:19:19.224Z,46.67
2023-02-19T18:21:46.103Z,46.29
2023-02-19T18:24:12.987Z,46.11
2023-02-19T18:26:41.193Z,46.85
2023-02-19T18:29:08.143Z,47.36
2023-02-19T18:31:37.540Z,46.69
2023-02-19T18:34:05.529Z,46.77
2023-02-19T18:36:33.165Z,46.32
2023-02-19T18:39:00.042Z,45.99
2023-02-19T18:41:27.038Z,44.78
2023-02-19T18:43:53.910Z,44.84
2023-02-19T18:46:21.807Z,46.26
2023-02-19T18:48:49.043Z,47.76
2023-02-19T18:51:15.960Z,48.37
2023-02-19T18:53:43.130Z,47.85
2023-02-19T18:56:10.070Z,48.50
2023-02-19T18:58:36.984Z,48.03
2023-02-19T19:01:04.165Z,48.11
2023-02-19T19:03:31.963Z,47.87
2023-02-19T19:05:59.280Z,47.83
2023-02-19T19:08:26.247Z,47.23
2023-02-19T19:10:53.105Z,48.08
2023-02-19T19:13:20.129Z,47.15
2023-02-19T19:15:51.236Z,48.13
2023-02-19T19:18:18.510Z,48.03
2023-02-19T19:20:45.430Z,47.63
2023-02-19T19:23:12.934Z,48.10
2023-02-19T19:25:39.849Z,48.42
2023-02-19T19:28:06.819Z,48.50
2023-02-19T19:30:33.907Z,48.44
2023-02-19T19:33:01.812Z,48.10
2023-02-19T19:35:28.783Z,47.80
2023-02-19T19:37:55.691Z,47.75
2023-02-19T19:40:22.617Z,47.96
2023-02-19T19:42:52.276Z,48.30
2023-02-19T19:45:19.296Z,48.73
2023-02-19T19:47:46.801Z,48.46
2023-02-19T19:50:14.625Z,48.59
2023-02-19T19:52:41.542Z,48.64
2023-02-19T19:55:09.081Z,49.13
2023-02-19T19:57:36.392Z,49.51
2023-02-19T20:00:04.719Z,49.46
2023-02-19T20:02:39.214Z,49.74
2023-02-19T20:05:06.947Z,49.96
2023-02-19T20:07:33.984Z,50.22
2023-02-19T20:10:01.175Z,50.51
2023-02-19T20:12:28.068Z,50.21
2023-02-19T20:14:54.997Z,50.62
2023-02-19T20:17:22.094Z,50.02
2023-02-19T20:19:49.045Z,50.40
2023-02-19T20:22:16.344Z,50.78
2023-02-19T20:24:43.308Z,50.73
2023-02-19T20:27:10.246Z,50.67
2023-02-19T20:29:37.171Z,51.22
2023-02-19T20:32:04.545Z,51.25
2023-02-19T20:34:31.839Z,51.50
2023-02-19T20:36:59.134Z,51.58
2023-02-19T20:39:29.093Z,51.66
2023-02-19T20:41:56.942Z,52.03
2023-02-19T20:44:24.994Z,51.75
2023-02-19T20:46:52.575Z,51.42
2023-02-19T20:49:23.093Z,50.87
2023-02-19T20:51:53.520Z,51.09
2023-02-19T20:54:22.989Z,51.45
2023-02-19T20:56:52.229Z,51.57
2023-02-19T20:59:20.853Z,52.06
2023-02-19T21:01:48.156Z,51.84
2023-02-19T21:04:16.352Z,51.57
2023-02-19T21:06:43.264Z,51.81
2023-02-19T21:09:10.278Z,51.95
2023-02-19T21:11:37.332Z,51.89
2023-02-19T21:14:04.253Z,51.71
2023-02-19T21:16:32.373Z,51.74
2023-02-19T21:18:59.815Z,52.02
2023-02-19T21:21:26.863Z,51.66
2023-02-19T21:23:55.886Z,51.38
2023-02-19T21:26:23.407Z,51.38
2023-02-19T21:28:53.541Z,51.65
2023-02-19T21:31:21.662Z,52.43
2023-02-19T21:33:49.363Z,52.34
2023-02-19T21:36:18.715Z,52.46
2023-02-19T21:38:45.748Z,52.46
2023-02-19T21:41:12.595Z,52.90
2023-02-19T21:43:39.610Z,55.24
2023-02-19T21:46:06.508Z,57.02
2023-02-19T21:48:33.441Z,59.32
2023-02-19T21:51:00.330Z,60.62
2023-02-19T21:53:27.241Z,61.44
2023-02-19T21:55:58.700Z,62.75
2023-02-19T21:58:26.909Z,62.55
2023-02-19T22:00:54.278Z,62.91
2023-02-19T22:03:21.331Z,63.67
2023-02-19T22:05:48.234Z,63.71
2023-02-19T22:08:17.518Z,63.89
2023-02-19T22:10:45.052Z,63.83
2023-02-19T22:13:11.957Z,64.04
2023-02-19T22:15:39.066Z,63.81
2023-02-19T22:18:06.137Z,64.43
2023-02-19T22:20:34.788Z,64.33
2023-02-19T22:23:01.875Z,66.87
2023-02-19T22:25:28.711Z,70.39
2023-02-19T22:27:55.610Z,72.07
2023-02-19T22:30:22.514Z,71.91
2023-02-19T22:32:49.428Z,73.12
2023-02-19T22:35:16.464Z,74.58
2023-02-19T22:37:43.389Z,74.21
2023-02-19T22:40:10.699Z,74.13
2023-02-19T22:42:38.033Z,75.12
2023-02-19T22:45:06.015Z,75.66
2023-02-19T22:47:32.859Z,74.96
2023-02-19T22:49:59.794Z,75.18
2023-02-19T22:52:28.223Z,74.03
2023-02-19T22:54:55.843Z,74.13
2023-02-19T22:57:22.758Z,74.08
2023-02-19T22:59:49.677Z,74.65
2023-02-19T23:02:17.555Z,75.88
2023-02-19T23:04:44.463Z,74.21
2023-02-19T23:07:11.318Z,73.86
2023-02-19T23:09:38.236Z,70.64
2023-02-19T23:12:10.600Z,67.62
2023-02-19T23:14:37.878Z,67.21
2023-02-19T23:17:04.869Z,68.01
2023-02-19T23:19:32.242Z,70.44
2023-02-19T23:21:59.776Z,71.42
2023-02-19T23:24:26.788Z,70.70
2023-02-19T23:26:54.531Z,71.14
2023-02-19T23:29:26.665Z,71.66
2023-02-19T23:31:55.075Z,70.65
2023-02-19T23:34:22.860Z,70.51
2023-02-19T23:36:50.646Z,69.89
2023-02-19T23:39:19.960Z,68.04
2023-02-19T23:41:52.847Z,66.63
2023-02-19T23:44:21.191Z,66.35
2023-02-19T23:46:48.762Z,66.28
2023-02-19T23:49:16.213Z,66.49
2023-02-19T23:51:43.104Z,66.61
2023-02-19T23:54:10.101Z,65.09
2023-02-19T23:56:36.982Z,64.48
2023-02-19T23:59:04.278Z,63.96
